Aviation Digital Data Service (ADDS)

Output produced by METARs form (2354 UTC 27 February 2021)
found at http://www.aviationweather.gov/metar/data/
 
METAR text: KGYI 272250Z 14007KT 3/4SM BR OVC002 15/15 A2981
Conditions at: KGYI (SHERMAN/DENISON , TX, US) observed 2250 UTC 27 February 2021
Temperature: 15.0°C (59°F)
Dewpoint: 15.0°C (59°F) [RH = 100%]
Pressure (altimeter): 29.81 inches Hg (1009.6 mb)
Winds: from the SE (140 degrees) at 8 MPH (7 knots; 3.6 m/s)
Visibility: 0.75 miles (1.21 km)
Ceiling: 200 feet AGL
Clouds: overcast cloud deck at 200 feet AGL
Weather: BR  (mist)